createdAt,value
2022-07-26T00:00:42.891Z,21.32
2022-07-26T00:05:46.004Z,21.30
2022-07-26T00:10:50.440Z,21.29
2022-07-26T00:15:54.779Z,21.27
2022-07-26T00:20:57.784Z,21.26
2022-07-26T00:26:00.996Z,21.23
2022-07-26T00:31:04.537Z,21.21
2022-07-26T00:36:08.598Z,21.18
2022-07-26T00:41:11.554Z,21.15
2022-07-26T00:46:14.620Z,21.13
2022-07-26T00:51:17.971Z,21.12
2022-07-26T00:56:22.208Z,21.11
2022-07-26T01:01:25.295Z,21.09
2022-07-26T01:06:28.307Z,21.08
2022-07-26T01:11:31.885Z,21.06
2022-07-26T01:16:35.205Z,21.05
2022-07-26T01:21:38.018Z,21.05
2022-07-26T01:26:40.818Z,21.05
2022-07-26T01:31:43.742Z,21.04
2022-07-26T01:36:47.015Z,21.03
2022-07-26T01:41:49.893Z,21.02
2022-07-26T01:46:52.650Z,20.99
2022-07-26T01:51:55.393Z,20.98
2022-07-26T01:56:58.093Z,20.96
2022-07-26T02:02:00.896Z,20.95
2022-07-26T02:07:05.583Z,20.94
2022-07-26T02:12:15.042Z,20.94
2022-07-26T02:17:18.458Z,20.92
2022-07-26T02:22:21.245Z,20.88
2022-07-26T02:27:23.969Z,20.85
2022-07-26T02:32:26.667Z,20.84
2022-07-26T02:37:29.325Z,20.82
2022-07-26T02:42:32.072Z,20.80
2022-07-26T02:47:34.798Z,20.78
2022-07-26T02:52:37.498Z,20.77
2022-07-26T02:57:46.379Z,20.76
2022-07-26T03:02:51.485Z,20.78
2022-07-26T03:07:54.273Z,20.80
2022-07-26T03:12:56.972Z,20.83
2022-07-26T03:17:59.931Z,20.85
2022-07-26T03:23:02.749Z,20.87
2022-07-26T03:28:05.749Z,20.88
2022-07-26T03:33:08.446Z,20.88
2022-07-26T03:38:11.159Z,20.88
2022-07-26T03:43:14.198Z,20.89
2022-07-26T03:48:17.324Z,20.89
2022-07-26T03:53:20.134Z,20.91
2022-07-26T03:58:22.839Z,20.92
2022-07-26T04:03:25.812Z,20.94
2022-07-26T04:08:28.537Z,20.95
2022-07-26T04:13:31.342Z,21.00
2022-07-26T04:18:34.233Z,21.05
2022-07-26T04:23:36.992Z,21.14
2022-07-26T04:28:41.254Z,21.25
2022-07-26T04:33:44.005Z,21.35
2022-07-26T04:38:46.960Z,21.42
2022-07-26T04:43:49.870Z,21.51
2022-07-26T04:48:52.862Z,21.59
2022-07-26T04:53:55.795Z,21.67
2022-07-26T04:58:58.486Z,21.76
2022-07-26T05:04:01.271Z,21.85
2022-07-26T05:09:04.298Z,21.95
2022-07-26T05:14:07.336Z,22.09
2022-07-26T05:19:10.342Z,22.26
2022-07-26T05:24:13.092Z,22.45
2022-07-26T05:29:15.812Z,22.58
2022-07-26T05:34:18.546Z,22.75
2022-07-26T05:39:21.308Z,22.89
2022-07-26T05:44:24.747Z,23.02
2022-07-26T05:49:39.818Z,23.16
2022-07-26T05:54:43.606Z,23.36
2022-07-26T05:59:46.337Z,23.50
2022-07-26T06:04:49.180Z,23.67
2022-07-26T06:09:52.023Z,23.86
2022-07-26T06:14:54.849Z,24.08
2022-07-26T06:19:58.351Z,24.27
2022-07-26T06:25:01.081Z,24.36
2022-07-26T06:30:05.124Z,24.31
2022-07-26T06:35:07.954Z,24.20
2022-07-26T06:40:11.635Z,24.04
2022-07-26T06:45:14.578Z,23.99
2022-07-26T06:50:17.670Z,23.96
2022-07-26T06:55:28.321Z,23.93
2022-07-26T07:00:31.129Z,23.94
2022-07-26T07:05:33.861Z,23.97
2022-07-26T07:10:36.634Z,23.92
2022-07-26T07:15:39.778Z,23.89
2022-07-26T07:20:42.556Z,23.87
2022-07-26T07:25:46.579Z,23.99
2022-07-26T07:30:52.540Z,24.04
2022-07-26T07:35:55.305Z,24.10
2022-07-26T07:40:58.035Z,24.18
2022-07-26T07:46:00.761Z,24.24
2022-07-26T07:51:03.676Z,24.20
2022-07-26T07:56:06.640Z,24.10
2022-07-26T08:01:10.339Z,23.97
2022-07-26T08:06:16.335Z,23.77
2022-07-26T08:11:19.411Z,23.67
2022-07-26T08:16:22.235Z,23.65
2022-07-26T08:21:28.247Z,23.61
2022-07-26T08:26:31.894Z,23.51
2022-07-26T08:31:34.809Z,23.44
2022-07-26T08:36:41.941Z,23.40
2022-07-26T08:41:52.437Z,23.29
2022-07-26T08:46:55.380Z,23.19
2022-07-26T08:52:00.096Z,23.08
2022-07-26T08:57:03.031Z,23.00
2022-07-26T09:02:08.886Z,22.93
2022-07-26T09:07:18.472Z,22.92
2022-07-26T09:12:22.361Z,23.00
2022-07-26T09:17:37.698Z,23.21
2022-07-26T09:23:16.429Z,23.29
2022-07-26T09:28:21.778Z,23.25
2022-07-26T09:33:24.551Z,23.15
2022-07-26T09:38:48.993Z,23.13
2022-07-26T09:43:53.999Z,23.13
2022-07-26T09:49:16.351Z,23.12
2022-07-26T09:54:29.814Z,23.06
2022-07-26T09:59:33.419Z,22.89
2022-07-26T10:04:36.483Z,22.70
2022-07-26T10:10:03.615Z,22.59
2022-07-26T10:15:07.330Z,22.49
2022-07-26T10:20:31.660Z,22.44
2022-07-26T10:25:34.883Z,22.39
2022-07-26T10:30:37.664Z,22.36
2022-07-26T10:35:43.655Z,22.30
2022-07-26T10:41:04.823Z,22.24
2022-07-26T10:46:16.989Z,22.13
2022-07-26T10:51:28.532Z,21.94
2022-07-26T10:56:33.427Z,21.77
2022-07-26T11:01:42.284Z,21.65
2022-07-26T11:06:45.864Z,21.59
2022-07-26T11:11:48.909Z,21.55
2022-07-26T11:16:51.697Z,21.56
2022-07-26T11:22:00.167Z,21.62
2022-07-26T11:27:04.352Z,21.63
2022-07-26T11:32:21.799Z,21.67
2022-07-26T11:37:24.952Z,21.75
2022-07-26T11:42:27.930Z,21.84
2022-07-26T11:47:30.646Z,21.91
2022-07-26T11:52:33.434Z,21.97
2022-07-26T11:57:36.467Z,21.99
2022-07-26T12:02:39.367Z,22.06
2022-07-26T12:08:00.174Z,22.14
2022-07-26T12:13:14.208Z,22.25
2022-07-26T12:18:30.751Z,22.19
2022-07-26T12:23:43.943Z,22.14
2022-07-26T12:28:46.694Z,22.15
2022-07-26T12:33:50.646Z,22.10
2022-07-26T12:38:53.753Z,22.04
2022-07-26T12:43:56.433Z,22.05
2022-07-26T12:49:00.632Z,22.11
2022-07-26T12:54:06.473Z,22.11
2022-07-26T12:59:11.023Z,22.13
2022-07-26T13:04:20.518Z,22.14
2022-07-26T13:09:23.365Z,22.13
2022-07-26T13:14:26.695Z,22.15
2022-07-26T13:19:30.544Z,22.21
2022-07-26T13:24:34.260Z,22.28
2022-07-26T13:29:37.574Z,22.32
2022-07-26T13:34:40.295Z,22.38
2022-07-26T13:39:45.099Z,22.35
2022-07-26T13:44:47.790Z,22.27
2022-07-26T13:49:50.622Z,22.26
2022-07-26T13:54:53.401Z,22.28
2022-07-26T13:59:56.183Z,22.30
2022-07-26T14:04:58.877Z,22.30
2022-07-26T14:10:01.833Z,22.42
2022-07-26T14:15:11.249Z,22.48
2022-07-26T14:20:17.250Z,22.54
2022-07-26T14:25:21.728Z,22.59
2022-07-26T14:30:24.486Z,22.64
2022-07-26T14:35:27.252Z,22.61
2022-07-26T14:40:29.959Z,22.65
2022-07-26T14:45:32.767Z,22.78
2022-07-26T14:50:53.375Z,22.86
2022-07-26T14:55:58.538Z,22.85
2022-07-26T15:01:01.475Z,22.85
2022-07-26T15:06:04.757Z,22.83
2022-07-26T15:11:07.632Z,22.86
2022-07-26T15:16:10.454Z,22.88
2022-07-26T15:21:15.581Z,22.93
2022-07-26T15:26:18.300Z,22.98
2022-07-26T15:31:21.068Z,23.03
2022-07-26T15:36:23.763Z,23.03
2022-07-26T15:41:26.512Z,23.09
2022-07-26T15:46:29.456Z,23.13
2022-07-26T15:51:33.042Z,23.14
2022-07-26T15:56:36.179Z,23.15
2022-07-26T16:01:38.973Z,23.16
2022-07-26T16:06:42.121Z,23.19
2022-07-26T16:11:45.459Z,23.24
2022-07-26T16:16:48.387Z,23.22
2022-07-26T16:21:51.211Z,23.15
2022-07-26T16:26:53.964Z,23.14
2022-07-26T16:31:56.721Z,23.13
2022-07-26T16:36:59.557Z,23.13
2022-07-26T16:42:06.877Z,23.13
2022-07-26T16:47:10.147Z,23.09
2022-07-26T16:52:13.002Z,23.07
2022-07-26T16:57:15.808Z,23.12
2022-07-26T17:02:18.614Z,23.18
2022-07-26T17:07:26.082Z,23.20
2022-07-26T17:12:29.470Z,23.15
2022-07-26T17:17:32.185Z,23.09
2022-07-26T17:22:34.941Z,22.99
2022-07-26T17:27:37.810Z,22.87
2022-07-26T17:32:40.648Z,22.83
2022-07-26T17:37:43.645Z,22.81
2022-07-26T17:42:46.880Z,22.79
2022-07-26T17:47:49.610Z,22.77
2022-07-26T17:52:53.224Z,22.76
2022-07-26T17:57:55.929Z,22.71
2022-07-26T18:02:58.644Z,22.68
2022-07-26T18:08:01.911Z,22.63
2022-07-26T18:13:04.588Z,22.59
2022-07-26T18:18:07.931Z,22.57
2022-07-26T18:23:10.889Z,22.57
2022-07-26T18:28:13.736Z,22.55
2022-07-26T18:33:16.712Z,22.52
2022-07-26T18:38:19.642Z,22.48
2022-07-26T18:43:22.389Z,22.47
2022-07-26T18:48:25.097Z,22.41
2022-07-26T18:53:32.494Z,22.35
2022-07-26T18:58:35.211Z,22.30
2022-07-26T19:03:38.394Z,22.24
2022-07-26T19:08:41.197Z,22.20
2022-07-26T19:13:43.897Z,22.19
2022-07-26T19:18:50.090Z,22.12
2022-07-26T19:23:54.655Z,22.03
2022-07-26T19:28:57.785Z,21.94
2022-07-26T19:34:00.438Z,21.87
2022-07-26T19:39:04.484Z,21.86
2022-07-26T19:44:07.211Z,21.86
2022-07-26T19:49:11.516Z,21.86
2022-07-26T19:54:14.609Z,21.83
2022-07-26T19:59:23.085Z,21.72
2022-07-26T20:04:26.935Z,21.62
2022-07-26T20:09:30.098Z,21.47
2022-07-26T20:14:32.880Z,21.21
2022-07-26T20:19:35.683Z,20.92
2022-07-26T20:24:38.426Z,20.61
2022-07-26T20:29:41.133Z,20.33
2022-07-26T20:34:43.890Z,20.11
2022-07-26T20:39:47.097Z,19.89
2022-07-26T20:44:52.823Z,19.72
2022-07-26T20:50:01.018Z,19.57
2022-07-26T20:55:06.792Z,19.48
2022-07-26T21:00:11.470Z,19.44
2022-07-26T21:05:14.273Z,19.47
2022-07-26T21:10:17.778Z,19.50
2022-07-26T21:15:21.428Z,19.54
2022-07-26T21:20:24.429Z,19.55
2022-07-26T21:25:27.108Z,19.54
2022-07-26T21:30:29.834Z,19.52
2022-07-26T21:35:32.855Z,19.42
2022-07-26T21:40:36.214Z,19.33
2022-07-26T21:45:39.270Z,19.23
2022-07-26T21:50:42.080Z,19.17
2022-07-26T21:55:44.805Z,19.09
2022-07-26T22:00:47.749Z,19.03
2022-07-26T22:05:52.659Z,18.98
2022-07-26T22:10:56.895Z,18.92
2022-07-26T22:15:59.710Z,18.90
2022-07-26T22:21:02.654Z,18.90
2022-07-26T22:26:06.120Z,18.84
2022-07-26T22:31:08.902Z,18.74
2022-07-26T22:36:11.615Z,18.62
2022-07-26T22:41:14.292Z,18.52
2022-07-26T22:46:18.258Z,18.38
2022-07-26T22:51:30.380Z,18.27
2022-07-26T22:56:33.047Z,18.15
2022-07-26T23:01:36.157Z,18.01
2022-07-26T23:06:39.004Z,17.89
2022-07-26T23:11:43.151Z,17.80
2022-07-26T23:16:45.908Z,17.76
2022-07-26T23:21:48.742Z,17.75
2022-07-26T23:26:51.474Z,17.72
2022-07-26T23:31:54.261Z,17.68
2022-07-26T23:36:57.083Z,17.60
2022-07-26T23:42:02.822Z,17.52
2022-07-26T23:47:05.697Z,17.42
2022-07-26T23:52:08.549Z,17.38
2022-07-26T23:57:12.559Z,17.39
